createdAt,value
2023-06-01T00:02:13.390Z,16.10
2023-06-01T00:04:49.792Z,16.10
2023-06-01T00:07:20.830Z,16.10
2023-06-01T00:09:51.695Z,16.00
2023-06-01T00:12:22.567Z,15.90
2023-06-01T00:14:53.472Z,15.80
2023-06-01T00:17:24.624Z,15.70
2023-06-01T00:19:58.244Z,15.40
2023-06-01T00:22:30.058Z,15.60
2023-06-01T00:25:00.996Z,15.70
2023-06-01T00:27:31.813Z,15.60
2023-06-01T00:30:02.740Z,15.60
2023-06-01T00:32:33.701Z,15.50
2023-06-01T00:35:07.902Z,15.40
2023-06-01T00:37:38.721Z,15.50
2023-06-01T00:40:10.785Z,15.50
2023-06-01T00:42:41.695Z,15.30
2023-06-01T00:45:14.041Z,15.30
2023-06-01T00:47:46.758Z,15.10
2023-06-01T00:50:20.540Z,15.10
2023-06-01T00:52:53.287Z,15.10
2023-06-01T00:55:24.706Z,15.10
2023-06-01T00:57:56.855Z,15.10
2023-06-01T01:00:30.343Z,15.00
2023-06-01T01:03:08.410Z,15.00
2023-06-01T01:05:42.522Z,15.10
2023-06-01T01:08:21.731Z,15.10
2023-06-01T01:10:59.502Z,15.00
2023-06-01T01:13:35.068Z,15.00
2023-06-01T01:16:13.735Z,14.90
2023-06-01T01:18:55.639Z,14.90
2023-06-01T01:21:35.271Z,14.80
2023-06-01T01:24:32.147Z,14.70
2023-06-01T01:27:15.006Z,14.60
2023-06-01T01:29:50.709Z,14.50
2023-06-01T01:32:21.984Z,14.50
2023-06-01T01:34:54.061Z,14.50
2023-06-01T01:37:26.360Z,14.50
2023-06-01T01:39:57.285Z,14.50
2023-06-01T01:42:28.522Z,14.60
2023-06-01T01:45:02.396Z,14.60
2023-06-01T01:47:40.602Z,14.60
2023-06-01T01:50:15.953Z,14.60
2023-06-01T01:52:48.604Z,14.50
2023-06-01T01:55:25.015Z,14.50
2023-06-01T01:57:57.144Z,14.50
2023-06-01T02:00:31.506Z,14.30
2023-06-01T02:03:02.833Z,14.30
2023-06-01T02:05:33.902Z,14.20
2023-06-01T02:08:04.742Z,14.20
2023-06-01T02:10:35.769Z,14.20
2023-06-01T02:13:06.694Z,14.00
2023-06-01T02:15:40.223Z,13.80
2023-06-01T02:18:12.372Z,13.70
2023-06-01T02:20:43.281Z,13.80
2023-06-01T02:23:14.164Z,13.60
2023-06-01T02:25:44.984Z,13.50
2023-06-01T02:28:15.896Z,13.50
2023-06-01T02:30:49.726Z,13.50
2023-06-01T02:33:20.612Z,13.40
2023-06-01T02:35:51.633Z,13.40
2023-06-01T02:38:22.441Z,13.30
2023-06-01T02:40:53.366Z,13.30
2023-06-01T02:43:24.313Z,13.10
2023-06-01T02:45:57.868Z,13.20
2023-06-01T02:48:29.251Z,13.20
2023-06-01T02:51:00.569Z,13.10
2023-06-01T02:53:32.635Z,13.10
2023-06-01T02:56:03.745Z,13.00
2023-06-01T02:58:34.615Z,12.90
2023-06-01T03:01:09.118Z,12.90
2023-06-01T03:03:40.191Z,12.80
2023-06-01T03:06:11.534Z,12.70
2023-06-01T03:08:42.781Z,12.50
2023-06-01T03:11:13.793Z,12.60
2023-06-01T03:13:44.667Z,12.60
2023-06-01T03:16:19.133Z,12.60
2023-06-01T03:18:50.491Z,12.60
2023-06-01T03:21:21.650Z,12.60
2023-06-01T03:23:52.516Z,12.70
2023-06-01T03:26:23.706Z,12.50
2023-06-01T03:28:54.789Z,12.60
2023-06-01T03:31:28.333Z,12.60
2023-06-01T03:33:59.173Z,12.50
2023-06-01T03:36:30.105Z,12.50
2023-06-01T03:39:01.027Z,12.50
2023-06-01T03:41:32.479Z,12.40
2023-06-01T03:44:03.317Z,12.40
2023-06-01T03:46:36.866Z,12.60
2023-06-01T03:49:08.373Z,12.50
2023-06-01T03:51:39.655Z,12.60
2023-06-01T03:54:10.713Z,12.60
2023-06-01T03:56:41.768Z,12.40
2023-06-01T03:59:12.763Z,12.40
2023-06-01T04:01:49.515Z,12.50
2023-06-01T04:04:22.163Z,12.60
2023-06-01T04:06:53.087Z,12.50
2023-06-01T04:09:24.086Z,12.50
2023-06-01T04:11:54.902Z,12.60
2023-06-01T04:14:25.979Z,12.40
2023-06-01T04:17:00.150Z,12.30
2023-06-01T04:19:31.185Z,12.30
2023-06-01T04:22:05.116Z,12.30
2023-06-01T04:24:36.108Z,12.40
2023-06-01T04:27:08.346Z,12.50
2023-06-01T04:29:41.259Z,12.50
2023-06-01T04:32:22.708Z,12.50
2023-06-01T04:34:55.660Z,12.30
2023-06-01T04:37:27.406Z,12.50
2023-06-01T04:39:58.646Z,12.50
2023-06-01T04:42:31.286Z,12.50
2023-06-01T04:45:02.469Z,12.50
2023-06-01T04:47:37.894Z,12.40
2023-06-01T04:50:11.119Z,12.60
2023-06-01T04:52:42.749Z,12.40
2023-06-01T04:55:14.741Z,12.30
2023-06-01T04:57:46.876Z,12.40
2023-06-01T05:00:19.721Z,12.50
2023-06-01T05:02:54.193Z,12.60
2023-06-01T05:05:25.537Z,12.50
2023-06-01T05:07:56.423Z,12.50
2023-06-01T05:10:27.417Z,12.20
2023-06-01T05:12:58.407Z,12.20
2023-06-01T05:15:29.916Z,12.20
2023-06-01T05:18:03.422Z,12.30
2023-06-01T05:20:34.299Z,12.20
2023-06-01T05:23:05.308Z,12.20
2023-06-01T05:25:36.249Z,12.10
2023-06-01T05:28:08.021Z,12.20
2023-06-01T05:30:39.067Z,12.20
2023-06-01T05:33:12.926Z,12.00
2023-06-01T05:35:43.928Z,12.00
2023-06-01T05:38:16.160Z,12.20
2023-06-01T05:40:47.198Z,12.20
2023-06-01T05:43:18.802Z,12.30
2023-06-01T05:45:49.809Z,12.20
2023-06-01T05:48:23.283Z,12.30
2023-06-01T05:50:54.257Z,12.30
2023-06-01T05:53:26.273Z,12.20
2023-06-01T05:55:57.455Z,12.20
2023-06-01T05:58:28.309Z,12.20
2023-06-01T06:01:02.132Z,12.30
2023-06-01T06:03:35.942Z,12.30
2023-06-01T06:06:07.205Z,12.40
2023-06-01T06:08:38.139Z,12.40
2023-06-01T06:11:09.143Z,12.50
2023-06-01T06:13:40.076Z,12.30
2023-06-01T06:16:10.931Z,12.40
2023-06-01T06:18:44.346Z,12.40
2023-06-01T06:21:17.402Z,12.60
2023-06-01T06:23:50.188Z,12.70
2023-06-01T06:26:21.668Z,12.70
2023-06-01T06:28:52.503Z,12.80
2023-06-01T06:31:24.834Z,12.70
2023-06-01T06:33:58.355Z,12.50
2023-06-01T06:36:29.564Z,12.80
2023-06-01T06:39:00.899Z,12.70
2023-06-01T06:41:32.057Z,13.00
2023-06-01T06:44:02.976Z,13.10
2023-06-01T06:46:33.843Z,13.10
2023-06-01T06:49:07.616Z,13.20
2023-06-01T06:51:57.062Z,13.00
2023-06-01T06:54:27.981Z,13.00
2023-06-01T06:56:58.830Z,13.10
2023-06-01T06:59:29.804Z,13.20
2023-06-01T07:02:01.057Z,13.40
2023-06-01T07:04:35.096Z,13.70
2023-06-01T07:07:06.949Z,13.70
2023-06-01T07:09:37.845Z,13.60
2023-06-01T07:12:09.840Z,14.10
2023-06-01T07:14:40.828Z,14.20
2023-06-01T07:17:12.399Z,13.90
2023-06-01T07:19:46.563Z,14.00
2023-06-01T07:22:18.389Z,14.30
2023-06-01T07:24:49.187Z,14.10
2023-06-01T07:27:22.071Z,14.10
2023-06-01T07:29:56.282Z,13.80
2023-06-01T07:32:27.878Z,13.80
2023-06-01T07:35:03.148Z,14.30
2023-06-01T07:37:34.246Z,14.40
2023-06-01T07:40:08.464Z,14.70
2023-06-01T07:42:39.852Z,14.90
2023-06-01T07:45:12.194Z,15.00
2023-06-01T07:47:43.692Z,15.10
2023-06-01T07:50:17.272Z,15.20
2023-06-01T07:52:48.226Z,15.10
2023-06-01T07:55:19.312Z,15.30
2023-06-01T07:57:50.377Z,15.10
2023-06-01T08:00:23.576Z,15.20
2023-06-01T08:02:54.608Z,15.40
2023-06-01T08:05:28.292Z,15.50
2023-06-01T08:08:00.147Z,15.50
2023-06-01T08:10:31.358Z,15.50
2023-06-01T08:13:03.454Z,15.50
2023-06-01T08:15:35.382Z,15.40
2023-06-01T08:18:07.676Z,15.40
2023-06-01T08:20:41.336Z,15.70
2023-06-01T08:23:12.233Z,16.20
2023-06-01T08:25:43.828Z,16.40
2023-06-01T08:28:14.757Z,16.70
2023-06-01T08:30:45.726Z,16.60
2023-06-01T08:33:17.196Z,16.50
2023-06-01T08:35:51.223Z,16.40
2023-06-01T08:38:22.596Z,16.50
2023-06-01T08:40:54.044Z,16.60
2023-06-01T08:43:26.485Z,16.50
2023-06-01T08:45:59.752Z,16.50
2023-06-01T08:48:31.550Z,16.20
2023-06-01T08:51:05.219Z,16.30
2023-06-01T08:53:38.175Z,16.60
2023-06-01T08:56:09.882Z,16.80
2023-06-01T08:58:42.257Z,16.70
2023-06-01T09:01:15.117Z,16.80
2023-06-01T09:03:46.137Z,16.90
2023-06-01T09:06:20.676Z,17.10
2023-06-01T09:08:51.641Z,17.20
2023-06-01T09:11:23.776Z,17.10
2023-06-01T09:13:54.713Z,17.00
2023-06-01T09:16:26.011Z,17.00
2023-06-01T09:18:57.527Z,17.20
2023-06-01T09:21:31.365Z,17.20
2023-06-01T09:24:23.390Z,17.20
2023-06-01T09:26:56.240Z,16.80
2023-06-01T09:29:28.508Z,16.80
2023-06-01T09:31:59.360Z,17.00
2023-06-01T09:34:31.802Z,17.30
2023-06-01T09:37:11.400Z,17.60
2023-06-01T09:39:42.356Z,17.70
2023-06-01T09:42:13.791Z,17.80
2023-06-01T09:44:46.233Z,17.70
2023-06-01T09:47:17.176Z,17.60
2023-06-01T09:49:49.370Z,17.70
2023-06-01T09:52:22.789Z,17.90
2023-06-01T09:54:59.586Z,18.10
2023-06-01T09:57:32.597Z,18.20
2023-06-01T10:00:06.695Z,18.40
2023-06-01T10:02:38.269Z,18.30
2023-06-01T10:05:09.726Z,18.10
2023-06-01T10:07:43.183Z,18.00
2023-06-01T10:10:18.063Z,18.30
2023-06-01T10:12:51.411Z,18.60
2023-06-01T10:15:31.049Z,18.80
2023-06-01T10:18:03.612Z,18.70
2023-06-01T10:20:37.371Z,18.60
2023-06-01T10:23:22.923Z,18.80
2023-06-01T10:26:02.915Z,18.80
2023-06-01T10:28:34.684Z,19.00
2023-06-01T10:31:35.570Z,18.80
2023-06-01T10:34:07.635Z,18.90
2023-06-01T10:37:15.566Z,18.90
2023-06-01T10:39:49.147Z,19.10
2023-06-01T10:42:39.051Z,18.80
2023-06-01T10:45:12.307Z,19.10
2023-06-01T10:47:51.912Z,19.30
2023-06-01T10:50:23.450Z,19.60
2023-06-01T10:52:54.702Z,19.40
2023-06-01T10:55:29.971Z,19.40
2023-06-01T10:58:28.792Z,19.40
2023-06-01T11:01:00.161Z,19.30
2023-06-01T11:03:47.388Z,19.30
2023-06-01T11:06:32.941Z,19.30
2023-06-01T11:09:06.885Z,19.50
2023-06-01T11:12:07.827Z,19.40
2023-06-01T11:14:40.783Z,19.00
2023-06-01T11:17:31.028Z,18.90
2023-06-01T11:20:12.399Z,19.30
2023-06-01T11:22:43.510Z,19.30
2023-06-01T11:25:20.566Z,19.10
2023-06-01T11:27:56.640Z,19.00
2023-06-01T11:30:28.158Z,19.00
2023-06-01T11:33:01.215Z,19.40
2023-06-01T11:35:32.442Z,19.60
2023-06-01T11:38:03.649Z,19.60
2023-06-01T11:40:39.597Z,19.80
2023-06-01T11:43:13.672Z,19.90
2023-06-01T11:45:44.883Z,19.80
2023-06-01T11:48:16.347Z,20.00
2023-06-01T11:50:51.213Z,19.60
2023-06-01T11:53:22.460Z,19.60
2023-06-01T11:55:53.564Z,19.30
2023-06-01T11:58:28.894Z,19.50
2023-06-01T12:01:01.856Z,19.50
2023-06-01T12:03:33.242Z,19.30
2023-06-01T12:06:04.260Z,19.30
2023-06-01T12:08:35.449Z,19.10
2023-06-01T12:11:07.019Z,19.20
2023-06-01T12:13:41.114Z,19.60
2023-06-01T12:18:52.262Z,19.70
2023-06-01T12:21:23.156Z,19.80
2023-06-01T12:23:54.961Z,19.80
2023-06-01T12:26:26.078Z,19.40
2023-06-01T12:29:01.307Z,19.30
2023-06-01T12:31:32.417Z,19.00
2023-06-01T12:34:04.211Z,18.80
2023-06-01T12:36:36.790Z,18.40
2023-06-01T12:39:08.710Z,18.40
2023-06-01T12:41:39.541Z,18.50
2023-06-01T12:44:13.308Z,18.80
2023-06-01T12:46:44.493Z,18.70
2023-06-01T12:49:17.672Z,18.60
2023-06-01T12:51:48.552Z,18.60
2023-06-01T12:54:19.666Z,18.60
2023-06-01T12:56:52.324Z,18.70
2023-06-01T12:59:25.822Z,18.50
2023-06-01T13:01:56.755Z,18.40
2023-06-01T13:04:28.025Z,18.30
2023-06-01T13:06:59.353Z,18.40
2023-06-01T13:09:30.221Z,18.60
2023-06-01T13:12:01.635Z,18.70
2023-06-01T13:14:35.445Z,18.70
2023-06-01T13:17:06.445Z,18.60
2023-06-01T13:19:37.772Z,18.80
2023-06-01T13:22:10.707Z,18.40
2023-06-01T13:24:53.543Z,18.50
2023-06-01T13:27:33.291Z,18.90
2023-06-01T13:30:08.941Z,18.90
2023-06-01T13:32:40.188Z,18.70
2023-06-01T13:35:12.439Z,18.50
2023-06-01T13:37:43.306Z,18.70
2023-06-01T13:40:14.574Z,18.80
2023-06-01T13:42:45.456Z,18.90
2023-06-01T13:45:19.243Z,18.90
2023-06-01T13:47:50.459Z,19.00
2023-06-01T13:50:21.562Z,19.00
2023-06-01T13:52:53.825Z,19.00
2023-06-01T13:55:26.315Z,19.10
2023-06-01T13:57:57.191Z,19.10
2023-06-01T14:00:31.129Z,19.00
2023-06-01T14:03:02.257Z,19.00
2023-06-01T14:05:48.515Z,19.10
2023-06-01T14:08:21.699Z,18.80
2023-06-01T14:10:52.672Z,18.80
2023-06-01T14:13:23.509Z,19.20
2023-06-01T14:15:57.027Z,19.10
2023-06-01T14:18:28.191Z,19.30
2023-06-01T14:20:59.598Z,19.20
2023-06-01T14:23:30.613Z,19.00
2023-06-01T14:26:01.872Z,19.10
2023-06-01T14:28:32.928Z,19.20
2023-06-01T14:31:06.880Z,18.90
2023-06-01T14:33:38.262Z,18.90
2023-06-01T14:36:09.726Z,19.00
2023-06-01T14:38:40.798Z,19.10
2023-06-01T14:41:11.777Z,19.20
2023-06-01T14:43:42.631Z,19.10
2023-06-01T14:46:16.505Z,18.90
2023-06-01T14:48:47.952Z,18.90
2023-06-01T14:51:19.208Z,18.80
2023-06-01T14:53:50.314Z,18.80
2023-06-01T14:56:22.149Z,18.80
2023-06-01T14:58:53.334Z,18.70
2023-06-01T15:01:27.896Z,18.50
2023-06-01T15:03:58.917Z,18.60
2023-06-01T15:06:29.770Z,18.80
2023-06-01T15:09:01.293Z,19.00
2023-06-01T15:11:32.322Z,19.20
2023-06-01T15:14:03.188Z,19.40
2023-06-01T15:16:39.049Z,19.20
2023-06-01T15:19:11.344Z,19.00
2023-06-01T15:21:42.817Z,18.80
2023-06-01T15:24:13.713Z,18.70
2023-06-01T15:26:45.384Z,18.80
2023-06-01T15:29:16.637Z,18.70
2023-06-01T15:31:50.054Z,18.90
2023-06-01T15:34:21.168Z,19.10
2023-06-01T15:36:52.114Z,19.20
2023-06-01T15:39:23.009Z,19.20
2023-06-01T15:44:28.282Z,18.80
2023-06-01T15:47:02.291Z,18.90
2023-06-01T15:49:33.462Z,18.90
2023-06-01T15:52:05.170Z,18.90
2023-06-01T15:54:36.393Z,18.70
2023-06-01T15:57:08.932Z,18.70
2023-06-01T15:59:40.092Z,18.90
2023-06-01T16:02:13.623Z,19.10
2023-06-01T16:04:44.526Z,19.20
2023-06-01T16:07:15.470Z,19.10
2023-06-01T16:09:46.375Z,19.10
2023-06-01T16:12:17.379Z,19.30
2023-06-01T16:14:48.588Z,19.20
2023-06-01T16:17:22.135Z,19.20
2023-06-01T16:19:53.351Z,19.40
2023-06-01T16:22:24.556Z,19.20
2023-06-01T16:24:55.776Z,19.20
2023-06-01T16:27:26.813Z,19.20
2023-06-01T16:29:57.799Z,19.10
2023-06-01T16:32:31.400Z,19.00
2023-06-01T16:35:02.770Z,19.00
2023-06-01T16:37:33.716Z,19.00
2023-06-01T16:40:04.710Z,19.00
2023-06-01T16:42:35.770Z,19.00
2023-06-01T16:45:07.798Z,19.10
2023-06-01T16:47:41.326Z,19.20
2023-06-01T16:50:13.377Z,19.40
2023-06-01T16:52:44.317Z,19.60
2023-06-01T16:55:15.296Z,19.60
2023-06-01T16:57:46.437Z,19.60
2023-06-01T17:00:18.469Z,19.70
2023-06-01T17:02:52.063Z,19.60
2023-06-01T17:05:23.028Z,19.60
2023-06-01T17:07:54.158Z,19.40
2023-06-01T17:10:25.345Z,19.30
2023-06-01T17:12:56.192Z,19.20
2023-06-01T17:15:30.307Z,19.00
2023-06-01T17:18:04.391Z,18.80
2023-06-01T17:20:35.281Z,18.60
2023-06-01T17:23:06.135Z,18.70
2023-06-01T17:25:37.022Z,18.80
2023-06-01T17:28:07.952Z,18.60
2023-06-01T17:30:39.015Z,18.50
2023-06-01T17:33:13.521Z,18.40
2023-06-01T17:35:44.508Z,18.10
2023-06-01T17:38:15.628Z,18.20
2023-06-01T17:40:46.624Z,18.30
2023-06-01T17:43:17.825Z,18.20
2023-06-01T17:45:48.719Z,18.10
2023-06-01T17:48:22.322Z,17.80
2023-06-01T17:50:54.499Z,17.60
2023-06-01T17:53:40.306Z,17.50
2023-06-01T17:56:12.205Z,17.50
2023-06-01T17:58:43.131Z,17.50
2023-06-01T18:01:14.543Z,17.50
2023-06-01T18:03:48.059Z,17.40
2023-06-01T18:06:19.077Z,17.40
2023-06-01T18:08:50.041Z,17.40
2023-06-01T18:11:22.017Z,17.40
2023-06-01T18:13:53.434Z,17.20
2023-06-01T18:16:24.424Z,16.90
2023-06-01T18:18:58.201Z,17.00
2023-06-01T18:21:29.615Z,17.00
2023-06-01T18:24:00.490Z,16.80
2023-06-01T18:26:31.357Z,16.70
2023-06-01T18:29:02.287Z,16.70
2023-06-01T18:31:33.281Z,16.70
2023-06-01T18:34:07.068Z,16.80
2023-06-01T18:36:37.973Z,16.60
2023-06-01T18:39:10.414Z,16.50
2023-06-01T18:41:42.407Z,16.30
2023-06-01T18:44:13.411Z,16.30
2023-06-01T18:46:45.475Z,16.20
2023-06-01T18:49:21.452Z,16.40
2023-06-01T18:51:54.627Z,16.40
2023-06-01T18:54:25.523Z,16.40
2023-06-01T18:56:56.753Z,16.50
2023-06-01T18:59:28.817Z,16.30
2023-06-01T19:02:00.140Z,16.30
2023-06-01T19:04:33.711Z,16.20
2023-06-01T19:07:05.787Z,16.10
2023-06-01T19:09:43.724Z,16.00
2023-06-01T19:12:15.433Z,15.90
2023-06-01T19:14:48.004Z,15.80
2023-06-01T19:17:19.183Z,15.90
2023-06-01T19:19:53.996Z,15.80
2023-06-01T19:22:32.765Z,15.80
2023-06-01T19:25:04.273Z,15.30
2023-06-01T19:27:35.277Z,15.60
2023-06-01T19:30:06.520Z,15.70
2023-06-01T19:32:37.397Z,15.80
2023-06-01T19:35:11.085Z,15.80
2023-06-01T19:37:41.898Z,15.80
2023-06-01T19:40:13.777Z,15.70
2023-06-01T19:42:44.901Z,15.60
2023-06-01T19:45:22.223Z,15.50
2023-06-01T19:47:55.017Z,15.50
2023-06-01T19:50:47.267Z,15.50
2023-06-01T19:53:18.902Z,15.50
2023-06-01T19:55:51.120Z,15.40
2023-06-01T19:58:23.655Z,15.40
2023-06-01T20:00:55.803Z,15.40
2023-06-01T20:03:40.716Z,15.30
2023-06-01T20:06:18.589Z,15.20
2023-06-01T20:08:51.355Z,15.10
2023-06-01T20:11:23.277Z,15.10
2023-06-01T20:13:54.237Z,15.10
2023-06-01T20:16:25.266Z,15.10
2023-06-01T20:18:56.171Z,15.00
2023-06-01T20:21:29.706Z,15.00
2023-06-01T20:24:00.785Z,15.00
2023-06-01T20:26:32.195Z,14.80
2023-06-01T20:29:03.498Z,14.70
2023-06-01T20:31:34.641Z,14.70
2023-06-01T20:34:13.440Z,14.60
2023-06-01T20:36:47.320Z,14.60
2023-06-01T20:39:19.400Z,14.60
2023-06-01T20:41:52.507Z,14.50
2023-06-01T20:44:24.547Z,14.60
2023-06-01T20:46:56.623Z,14.30
2023-06-01T20:49:29.419Z,14.30
2023-06-01T20:52:02.931Z,14.20
2023-06-01T20:54:33.776Z,14.00
2023-06-01T20:57:04.795Z,13.90
2023-06-01T20:59:36.148Z,13.90
2023-06-01T21:02:10.249Z,13.90
2023-06-01T21:04:43.489Z,13.90
2023-06-01T21:07:16.997Z,14.00
2023-06-01T21:09:48.194Z,13.90
2023-06-01T21:12:19.213Z,13.90
2023-06-01T21:14:50.284Z,13.90
2023-06-01T21:17:21.461Z,13.80
2023-06-01T21:19:52.471Z,13.80
2023-06-01T21:22:26.286Z,13.80
2023-06-01T21:27:38.340Z,13.80
2023-06-01T21:30:11.286Z,13.90
2023-06-01T21:32:43.953Z,13.90
2023-06-01T21:35:14.962Z,13.80
2023-06-01T21:37:48.729Z,13.90
2023-06-01T21:40:20.287Z,13.90
2023-06-01T21:42:51.376Z,13.90
2023-06-01T21:45:22.339Z,14.00
2023-06-01T21:47:53.447Z,13.80
2023-06-01T21:50:25.403Z,13.90
2023-06-01T21:52:59.301Z,13.90
2023-06-01T21:55:30.357Z,13.90
2023-06-01T21:58:01.622Z,13.80
2023-06-01T22:00:32.593Z,13.70
2023-06-01T22:03:03.980Z,13.70
2023-06-01T22:05:36.565Z,13.70
2023-06-01T22:08:10.125Z,13.80
2023-06-01T22:10:41.367Z,13.60
2023-06-01T22:13:12.534Z,13.80
2023-06-01T22:15:44.382Z,13.70
2023-06-01T22:18:15.599Z,13.70
2023-06-01T22:20:46.626Z,13.70
2023-06-01T22:23:22.717Z,13.60
2023-06-01T22:25:53.719Z,13.70
2023-06-01T22:28:25.703Z,13.60
2023-06-01T22:30:56.728Z,13.50
2023-06-01T22:33:31.205Z,13.50
2023-06-01T22:36:04.254Z,13.40
2023-06-01T22:38:38.341Z,13.40
2023-06-01T22:41:09.281Z,13.30
2023-06-01T22:43:40.291Z,13.20
2023-06-01T22:46:11.357Z,13.20
2023-06-01T22:48:42.697Z,13.30
2023-06-01T22:51:13.779Z,13.30
2023-06-01T22:53:47.475Z,13.20
2023-06-01T22:56:18.429Z,13.20
2023-06-01T22:58:49.569Z,13.30
2023-06-01T23:01:20.592Z,13.40
2023-06-01T23:03:52.124Z,13.40
2023-06-01T23:06:23.790Z,13.40
2023-06-01T23:08:58.557Z,13.50
2023-06-01T23:11:33.299Z,13.50
2023-06-01T23:14:12.737Z,13.50
2023-06-01T23:16:46.715Z,13.60
2023-06-01T23:19:20.873Z,13.60
2023-06-01T23:21:56.022Z,13.50
2023-06-01T23:24:30.031Z,13.50
2023-06-01T23:27:01.685Z,13.40
2023-06-01T23:29:33.221Z,13.40
2023-06-01T23:32:04.479Z,13.40
2023-06-01T23:34:36.265Z,13.30
2023-06-01T23:37:14.510Z,13.70
2023-06-01T23:39:48.147Z,13.10
2023-06-01T23:42:19.709Z,13.00
2023-06-01T23:44:50.724Z,13.10
2023-06-01T23:47:22.116Z,13.20
2023-06-01T23:49:53.169Z,13.30
2023-06-01T23:52:24.187Z,13.20
2023-06-01T23:54:57.698Z,13.30
2023-06-01T23:57:28.840Z,13.30
2023-06-01T23:59:59.772Z,13.30
